createdAt,value
2022-09-06T00:02:21.648Z,3.73
2022-09-06T00:04:50.031Z,3.47
2022-09-06T00:07:18.491Z,3.27
2022-09-06T00:09:46.586Z,3.00
2022-09-06T00:12:14.709Z,3.47
2022-09-06T00:14:42.814Z,3.10
2022-09-06T00:17:12.738Z,3.00
2022-09-06T00:19:41.086Z,3.57
2022-09-06T00:22:09.875Z,3.57
2022-09-06T00:24:38.209Z,3.30
2022-09-06T00:27:06.722Z,3.00
2022-09-06T00:29:35.002Z,3.10
2022-09-06T00:32:03.388Z,3.63
2022-09-06T00:34:33.083Z,3.30
2022-09-06T00:37:01.279Z,3.30
2022-09-06T00:39:29.773Z,3.30
2022-09-06T00:41:58.001Z,3.30
2022-09-06T00:44:25.943Z,3.93
2022-09-06T00:46:55.966Z,2.80
2022-09-06T00:49:27.033Z,3.37
2022-09-06T00:52:02.160Z,3.10
2022-09-06T00:54:30.553Z,3.30
2022-09-06T00:57:00.501Z,3.47
2022-09-06T00:59:31.259Z,2.83
2022-09-06T01:01:59.842Z,3.53
2022-09-06T01:04:28.845Z,3.30
2022-09-06T01:07:07.400Z,3.57
2022-09-06T01:09:49.203Z,2.93
2022-09-06T01:12:28.120Z,3.17
2022-09-06T01:15:12.945Z,3.23
2022-09-06T01:17:54.676Z,3.70
2022-09-06T01:20:46.177Z,3.60
2022-09-06T01:23:36.479Z,3.97
2022-09-06T01:26:31.151Z,3.57
2022-09-06T01:29:00.808Z,3.23
2022-09-06T01:31:46.417Z,3.47
2022-09-06T01:34:24.055Z,3.07
2022-09-06T01:37:09.496Z,3.60
2022-09-06T01:39:39.557Z,3.10
2022-09-06T01:42:11.365Z,3.37
2022-09-06T01:44:44.044Z,3.40
2022-09-06T01:47:23.103Z,3.77
2022-09-06T01:50:03.959Z,3.23
2022-09-06T01:52:39.880Z,3.30
2022-09-06T01:55:22.669Z,3.20
2022-09-06T01:58:06.456Z,3.27
2022-09-06T02:00:44.393Z,3.77
2022-09-06T02:03:21.709Z,3.50
2022-09-06T02:05:54.104Z,3.60
2022-09-06T02:08:27.306Z,3.07
2022-09-06T02:10:59.966Z,3.10
2022-09-06T02:13:34.741Z,4.10
2022-09-06T02:16:06.295Z,4.17
2022-09-06T02:18:39.372Z,4.53
2022-09-06T02:21:08.048Z,4.50
2022-09-06T02:23:40.476Z,4.40
2022-09-06T02:26:14.552Z,4.23
2022-09-06T02:28:42.643Z,4.30
2022-09-06T02:31:17.533Z,4.87
2022-09-06T02:33:48.408Z,4.17
2022-09-06T02:36:16.843Z,4.70
2022-09-06T02:38:46.839Z,4.30
2022-09-06T02:41:18.537Z,4.20
2022-09-06T02:43:46.790Z,3.67
2022-09-06T02:46:16.759Z,3.80
2022-09-06T02:48:44.858Z,4.20
2022-09-06T02:51:13.010Z,4.00
2022-09-06T02:53:41.133Z,3.83
2022-09-06T02:56:09.623Z,4.60
2022-09-06T03:03:34.097Z,4.70
2022-09-06T03:06:02.374Z,3.87
2022-09-06T03:08:33.627Z,3.57
2022-09-06T03:11:02.188Z,4.13
2022-09-06T03:13:30.788Z,4.00
2022-09-06T03:16:00.688Z,4.40
2022-09-06T03:18:31.065Z,4.20
2022-09-06T03:21:00.849Z,3.80
2022-09-06T03:23:30.174Z,4.17
2022-09-06T03:25:58.548Z,4.40
2022-09-06T03:28:27.872Z,4.30
2022-09-06T03:30:56.133Z,4.20
2022-09-06T03:33:24.425Z,3.53
2022-09-06T03:35:54.622Z,4.03
2022-09-06T03:38:25.742Z,4.27
2022-09-06T03:40:53.936Z,3.97
2022-09-06T03:43:23.575Z,3.83
2022-09-06T03:45:53.385Z,3.83
2022-09-06T03:48:23.086Z,3.70
2022-09-06T03:50:54.220Z,4.27
2022-09-06T03:53:25.751Z,3.90
2022-09-06T03:55:55.605Z,4.37
2022-09-06T03:58:25.292Z,4.40
2022-09-06T04:01:02.094Z,4.07
2022-09-06T04:03:30.191Z,3.90
2022-09-06T04:05:58.223Z,3.90
2022-09-06T04:08:28.034Z,4.30
2022-09-06T04:10:56.996Z,4.23
2022-09-06T04:13:26.348Z,3.80
2022-09-06T04:15:54.476Z,4.43
2022-09-06T04:18:22.999Z,4.30
2022-09-06T04:20:52.213Z,4.53
2022-09-06T04:23:21.254Z,4.63
2022-09-06T04:25:52.299Z,24.73
2022-09-06T04:28:21.242Z,13.20
2022-09-06T04:30:54.169Z,7.97
2022-09-06T04:33:25.776Z,5.43
2022-09-06T04:35:54.711Z,5.87
2022-09-06T04:38:24.256Z,4.87
2022-09-06T04:40:55.529Z,4.73
2022-09-06T04:43:24.397Z,4.23
2022-09-06T04:45:52.445Z,5.00
2022-09-06T04:48:20.737Z,4.83
2022-09-06T04:50:48.811Z,4.90
2022-09-06T04:53:16.893Z,4.43
2022-09-06T04:55:45.160Z,3.77
2022-09-06T04:58:14.579Z,4.33
2022-09-06T05:00:44.742Z,5.00
2022-09-06T05:03:12.806Z,4.33
2022-09-06T05:05:41.440Z,3.97
2022-09-06T05:08:09.532Z,4.63
2022-09-06T05:10:37.568Z,4.27
2022-09-06T05:13:05.633Z,4.40
2022-09-06T05:15:35.016Z,4.33
2022-09-06T05:18:04.955Z,4.80
2022-09-06T05:20:33.465Z,4.57
2022-09-06T05:23:01.661Z,4.70
2022-09-06T05:25:29.695Z,5.37
2022-09-06T05:27:57.767Z,4.83
2022-09-06T05:30:25.788Z,5.07
2022-09-06T05:32:55.219Z,4.60
2022-09-06T05:35:23.333Z,4.70
2022-09-06T05:37:51.461Z,4.47
2022-09-06T05:40:19.553Z,5.03
2022-09-06T05:42:47.556Z,4.50
2022-09-06T05:45:15.791Z,4.43
2022-09-06T05:47:43.800Z,4.53
2022-09-06T05:50:13.580Z,4.80
2022-09-06T05:52:41.658Z,4.70
2022-09-06T05:55:10.583Z,5.03
2022-09-06T05:57:38.964Z,4.93
2022-09-06T06:00:08.064Z,4.33
2022-09-06T06:02:40.002Z,4.90
2022-09-06T06:05:09.024Z,4.30
2022-09-06T06:07:38.515Z,4.73
2022-09-06T06:10:07.552Z,4.30
2022-09-06T06:12:35.686Z,4.50
2022-09-06T06:15:05.787Z,4.73
2022-09-06T06:17:34.159Z,5.00
2022-09-06T06:20:02.321Z,5.07
2022-09-06T06:22:30.319Z,5.10
2022-09-06T06:24:59.799Z,5.00
2022-09-06T06:27:27.775Z,4.93
2022-09-06T06:29:55.854Z,5.23
2022-09-06T06:32:23.884Z,5.50
2022-09-06T06:34:51.964Z,4.77
2022-09-06T06:37:20.018Z,4.60
2022-09-06T06:39:48.247Z,4.53
2022-09-06T06:42:17.801Z,5.70
2022-09-06T06:44:53.850Z,4.83
2022-09-06T06:47:21.922Z,5.47
2022-09-06T06:49:49.990Z,5.60
2022-09-06T06:52:18.146Z,5.63
2022-09-06T06:54:46.331Z,5.30
2022-09-06T06:57:14.485Z,5.10
2022-09-06T06:59:43.916Z,4.87
2022-09-06T07:02:12.654Z,4.47
2022-09-06T07:04:40.828Z,4.47
2022-09-06T07:12:45.645Z,4.17
2022-09-06T07:15:15.224Z,5.30
2022-09-06T07:17:44.145Z,3.97
2022-09-06T07:20:12.985Z,4.30
2022-09-06T07:22:42.056Z,3.90
2022-09-06T07:25:12.189Z,4.10
2022-09-06T07:27:49.603Z,4.23
2022-09-06T07:30:20.831Z,4.23
2022-09-06T07:32:48.964Z,3.80
2022-09-06T07:35:17.629Z,3.97
2022-09-06T07:37:53.146Z,4.17
2022-09-06T07:40:21.318Z,3.87
2022-09-06T07:42:49.612Z,3.13
2022-09-06T07:45:19.859Z,3.93
2022-09-06T07:53:15.472Z,3.77
2022-09-06T07:55:45.981Z,3.90
2022-09-06T07:58:14.270Z,3.60
2022-09-06T08:00:43.811Z,4.07
2022-09-06T08:03:11.990Z,4.30
2022-09-06T08:11:16.347Z,3.50
2022-09-06T08:13:44.825Z,4.27
2022-09-06T08:16:20.254Z,3.60
2022-09-06T08:18:52.010Z,3.97
2022-09-06T08:21:20.747Z,3.30
2022-09-06T08:23:50.219Z,3.40
2022-09-06T08:26:19.203Z,3.70
2022-09-06T08:28:47.536Z,3.40
2022-09-06T08:31:17.108Z,3.20
2022-09-06T08:33:47.776Z,3.43
2022-09-06T08:36:16.388Z,3.33
2022-09-06T08:38:44.777Z,2.90
2022-09-06T08:41:24.314Z,3.43
2022-09-06T08:46:52.110Z,3.70
2022-09-06T08:49:22.139Z,3.40
2022-09-06T08:52:14.123Z,3.43
2022-09-06T08:54:47.969Z,3.60
2022-09-06T08:57:31.077Z,3.23
2022-09-06T09:00:03.697Z,3.50
2022-09-06T09:02:43.907Z,3.17
2022-09-06T09:05:24.404Z,3.33
2022-09-06T09:08:03.625Z,3.50
2022-09-06T09:10:35.962Z,3.00
2022-09-06T09:13:08.744Z,3.50
2022-09-06T09:15:40.345Z,3.10
2022-09-06T09:18:08.933Z,3.60
2022-09-06T09:20:40.154Z,3.07
2022-09-06T09:23:08.362Z,3.03
2022-09-06T09:25:39.529Z,3.23
2022-09-06T09:28:17.243Z,3.13
2022-09-06T09:30:51.693Z,3.63
2022-09-06T09:33:28.677Z,3.40
2022-09-06T09:36:00.661Z,3.50
2022-09-06T09:38:31.855Z,3.50
2022-09-06T09:41:03.737Z,4.00
2022-09-06T09:43:33.059Z,3.60
2022-09-06T09:46:29.838Z,3.37
2022-09-06T09:49:30.101Z,2.97
2022-09-06T09:52:10.705Z,3.30
2022-09-06T09:54:41.112Z,3.60
2022-09-06T09:57:11.839Z,3.70
2022-09-06T09:59:45.385Z,3.47
2022-09-06T10:02:27.293Z,3.43
2022-09-06T10:05:02.229Z,3.67
2022-09-06T10:07:33.722Z,3.80
2022-09-06T10:10:05.266Z,3.77
2022-09-06T10:12:35.636Z,3.80
2022-09-06T10:15:06.852Z,4.17
2022-09-06T10:17:37.819Z,4.00
2022-09-06T10:20:09.326Z,4.07
2022-09-06T10:22:49.817Z,4.27
2022-09-06T10:25:39.426Z,3.53
2022-09-06T10:28:24.081Z,3.70
2022-09-06T10:31:23.716Z,3.33
2022-09-06T10:34:03.093Z,3.90
2022-09-06T10:36:35.627Z,3.67
2022-09-06T10:39:17.722Z,3.33
2022-09-06T10:42:00.600Z,4.10
2022-09-06T10:44:43.714Z,3.73
2022-09-06T10:47:14.442Z,3.80
2022-09-06T10:49:50.384Z,3.67
2022-09-06T10:52:24.259Z,3.90
2022-09-06T10:55:02.245Z,3.40
2022-09-06T11:00:25.628Z,3.43
2022-09-06T11:05:54.147Z,3.57
2022-09-06T11:11:21.771Z,3.47
2022-09-06T11:13:50.204Z,4.03
2022-09-06T11:16:24.321Z,3.13
2022-09-06T11:18:57.399Z,3.53
2022-09-06T11:21:56.428Z,3.43
2022-09-06T11:24:32.717Z,3.47
2022-09-06T11:27:06.995Z,3.30
2022-09-06T11:29:36.691Z,3.17
2022-09-06T11:32:26.405Z,3.17
2022-09-06T11:34:56.302Z,3.10
2022-09-06T11:37:27.492Z,3.17
2022-09-06T11:43:14.862Z,3.07
2022-09-06T11:45:46.251Z,2.73
2022-09-06T11:48:37.382Z,3.10
2022-09-06T11:51:10.993Z,2.80
2022-09-06T11:54:12.195Z,3.10
2022-09-06T11:56:44.250Z,3.27
2022-09-06T11:59:31.354Z,2.40
2022-09-06T12:02:05.030Z,2.73
2022-09-06T12:05:11.830Z,2.57
2022-09-06T12:08:18.266Z,3.07
2022-09-06T12:10:51.459Z,2.90
2022-09-06T12:13:54.026Z,2.90
2022-09-06T12:16:24.307Z,2.80
2022-09-06T12:19:04.728Z,2.50
2022-09-06T12:21:52.198Z,2.53
2022-09-06T12:25:02.165Z,2.77
2022-09-06T12:27:33.154Z,2.53
2022-09-06T12:30:04.434Z,2.40
2022-09-06T12:32:37.536Z,2.80
2022-09-06T12:38:00.157Z,2.10
2022-09-06T12:40:30.590Z,2.30
2022-09-06T12:42:59.491Z,2.30
2022-09-06T12:45:27.865Z,2.40
2022-09-06T12:48:09.729Z,2.50
2022-09-06T12:50:38.867Z,2.40
2022-09-06T12:53:23.411Z,3.27
2022-09-06T12:56:04.469Z,3.47
2022-09-06T12:58:32.634Z,2.90
2022-09-06T13:01:07.980Z,3.53
2022-09-06T13:03:42.748Z,2.70
2022-09-06T13:06:20.416Z,2.40
2022-09-06T13:08:55.451Z,2.73
2022-09-06T13:11:27.473Z,3.27
2022-09-06T13:13:56.552Z,3.10
2022-09-06T13:16:27.272Z,3.43
2022-09-06T13:19:11.572Z,3.13
2022-09-06T13:21:42.240Z,3.37
2022-09-06T13:24:22.080Z,3.60
2022-09-06T13:26:50.815Z,3.53
2022-09-06T13:29:26.730Z,2.90
2022-09-06T13:31:57.030Z,2.20
2022-09-06T13:34:28.242Z,2.40
2022-09-06T13:37:02.255Z,2.57
2022-09-06T13:39:32.720Z,2.67
2022-09-06T13:42:07.582Z,2.67
2022-09-06T13:44:37.017Z,2.83
2022-09-06T13:47:05.762Z,2.57
2022-09-06T13:49:35.191Z,2.60
2022-09-06T13:52:05.032Z,1.87
2022-09-06T13:54:34.049Z,2.40
2022-09-06T13:57:02.776Z,2.93
2022-09-06T13:59:31.580Z,2.60
2022-09-06T14:02:02.967Z,2.30
2022-09-06T14:04:31.973Z,2.40
2022-09-06T14:07:01.638Z,2.97
2022-09-06T14:09:30.367Z,2.10
2022-09-06T14:11:58.482Z,2.60
2022-09-06T14:14:26.660Z,2.83
2022-09-06T14:16:54.976Z,2.37
2022-09-06T14:19:24.202Z,2.80
2022-09-06T14:21:52.511Z,2.47
2022-09-06T14:24:22.050Z,2.50
2022-09-06T14:26:50.222Z,2.80
2022-09-06T14:29:18.337Z,2.17
2022-09-06T14:31:48.506Z,2.17
2022-09-06T14:34:16.638Z,2.40
2022-09-06T14:36:44.760Z,1.40
2022-09-06T14:39:12.804Z,1.10
2022-09-06T14:41:42.339Z,1.60
2022-09-06T14:44:10.937Z,1.37
2022-09-06T14:46:39.670Z,1.40
2022-09-06T14:49:10.184Z,1.20
2022-09-06T14:51:39.811Z,1.27
2022-09-06T14:54:09.610Z,1.50
2022-09-06T14:56:40.762Z,1.30
2022-09-06T14:59:10.890Z,1.50
2022-09-06T15:01:40.389Z,1.63
2022-09-06T15:04:10.493Z,1.50
2022-09-06T15:06:40.748Z,1.83
2022-09-06T15:09:11.409Z,1.50
2022-09-06T15:11:41.348Z,1.20
2022-09-06T15:14:15.447Z,1.20
2022-09-06T15:16:43.914Z,1.13
2022-09-06T15:19:12.226Z,1.10
2022-09-06T15:21:40.502Z,0.90
2022-09-06T15:24:12.112Z,0.90
2022-09-06T15:26:41.037Z,1.30
2022-09-06T15:29:11.994Z,0.80
2022-09-06T15:31:40.577Z,1.10
2022-09-06T15:34:09.832Z,1.20
2022-09-06T15:36:38.602Z,1.20
2022-09-06T15:39:07.300Z,1.10
2022-09-06T15:41:37.422Z,1.00
2022-09-06T15:44:11.378Z,1.40
2022-09-06T15:46:48.713Z,1.20
2022-09-06T15:49:19.270Z,1.50
2022-09-06T15:51:47.721Z,1.23
2022-09-06T15:54:17.746Z,1.20
2022-09-06T15:56:46.250Z,1.40
2022-09-06T15:59:15.775Z,1.70
2022-09-06T16:01:43.906Z,1.37
2022-09-06T16:04:12.243Z,1.27
2022-09-06T16:06:42.648Z,1.50
2022-09-06T16:09:14.159Z,1.90
2022-09-06T16:11:43.056Z,1.83
2022-09-06T16:14:12.824Z,2.37
2022-09-06T16:16:43.385Z,2.03
2022-09-06T16:19:13.214Z,2.37
2022-09-06T16:21:42.867Z,2.33
2022-09-06T16:24:13.081Z,1.87
2022-09-06T16:26:43.098Z,3.73
2022-09-06T16:29:12.428Z,1.60
2022-09-06T16:31:42.849Z,2.83
2022-09-06T16:34:11.859Z,2.40
2022-09-06T16:36:40.697Z,4.07
2022-09-06T16:39:09.566Z,3.13
2022-09-06T16:41:40.914Z,3.17
2022-09-06T16:44:10.293Z,1.60
2022-09-06T16:46:40.152Z,1.73
2022-09-06T16:49:10.183Z,1.60
2022-09-06T16:51:38.556Z,2.23
2022-09-06T16:54:06.879Z,1.67
2022-09-06T16:56:36.063Z,1.73
2022-09-06T16:59:06.585Z,2.40
2022-09-06T17:01:36.197Z,3.03
2022-09-06T17:04:05.626Z,1.60
2022-09-06T17:06:42.214Z,2.00
2022-09-06T17:09:10.663Z,1.60
2022-09-06T17:11:40.270Z,1.40
2022-09-06T17:14:08.843Z,1.30
2022-09-06T17:16:54.589Z,1.63
2022-09-06T17:19:22.872Z,6.60
2022-09-06T17:21:52.722Z,4.77
2022-09-06T17:24:20.928Z,2.73
2022-09-06T17:26:49.036Z,1.83
2022-09-06T17:29:17.124Z,1.80
2022-09-06T17:31:45.712Z,1.80
2022-09-06T17:34:13.795Z,2.30
2022-09-06T17:36:41.943Z,1.80
2022-09-06T17:39:13.840Z,2.07
2022-09-06T17:41:45.723Z,2.10
2022-09-06T17:44:15.500Z,2.20
2022-09-06T17:46:56.854Z,2.27
2022-09-06T17:49:27.146Z,2.20
2022-09-06T17:51:55.309Z,2.40
2022-09-06T17:54:24.823Z,2.80
2022-09-06T17:56:52.980Z,3.50
2022-09-06T17:59:21.198Z,3.37
2022-09-06T18:01:49.288Z,3.20
2022-09-06T18:04:18.084Z,4.43
2022-09-06T18:06:47.874Z,5.00
2022-09-06T18:09:17.972Z,3.70
2022-09-06T18:11:47.485Z,5.83
2022-09-06T18:14:18.035Z,4.50
2022-09-06T18:16:48.992Z,3.83
2022-09-06T18:19:18.763Z,2.90
2022-09-06T18:21:49.054Z,3.00
2022-09-06T18:24:17.707Z,3.60
2022-09-06T18:26:47.367Z,3.10
2022-09-06T18:29:18.447Z,4.13
2022-09-06T18:31:46.739Z,2.90
2022-09-06T18:34:16.558Z,3.03
2022-09-06T18:36:44.757Z,3.20
2022-09-06T18:39:13.403Z,2.77
2022-09-06T18:41:58.976Z,3.27
2022-09-06T18:44:32.259Z,2.80
2022-09-06T18:47:02.064Z,2.97
2022-09-06T18:49:30.845Z,3.33
2022-09-06T18:51:59.092Z,2.63
2022-09-06T18:54:27.430Z,2.93
2022-09-06T18:56:55.651Z,3.80
2022-09-06T18:59:23.723Z,4.50
2022-09-06T19:01:53.503Z,3.47
2022-09-06T19:04:21.754Z,3.40
2022-09-06T19:06:49.919Z,3.70
2022-09-06T19:09:18.772Z,3.03
2022-09-06T19:11:51.249Z,2.87
2022-09-06T19:14:19.623Z,3.00
2022-09-06T19:16:48.720Z,2.93
2022-09-06T19:19:18.280Z,3.00
2022-09-06T19:21:46.586Z,3.17
2022-09-06T19:24:16.066Z,3.20
2022-09-06T19:26:46.353Z,3.53
2022-09-06T19:29:17.525Z,3.70
2022-09-06T19:31:47.067Z,4.10
2022-09-06T19:34:16.227Z,3.30
2022-09-06T19:36:47.081Z,3.40
2022-09-06T19:39:17.026Z,3.40
2022-09-06T19:41:47.341Z,3.40
2022-09-06T19:44:16.360Z,3.10
2022-09-06T19:46:46.791Z,3.33
2022-09-06T19:49:17.087Z,2.93
2022-09-06T19:51:48.816Z,3.23
2022-09-06T19:54:17.643Z,3.43
2022-09-06T19:56:46.854Z,7.20
2022-09-06T19:59:16.323Z,3.87
2022-09-06T20:01:46.492Z,3.50
2022-09-06T20:04:15.784Z,3.53
2022-09-06T20:06:44.100Z,4.10
2022-09-06T20:09:15.916Z,3.30
2022-09-06T20:11:44.455Z,3.53
2022-09-06T20:14:13.298Z,4.43
2022-09-06T20:16:42.600Z,3.77
2022-09-06T20:19:13.060Z,4.00
2022-09-06T20:21:41.598Z,3.37
2022-09-06T20:24:09.826Z,3.20
2022-09-06T20:26:40.354Z,4.07
2022-09-06T20:29:09.222Z,3.30
2022-09-06T20:31:39.132Z,3.40
2022-09-06T20:34:08.220Z,3.87
2022-09-06T20:36:36.688Z,8.23
2022-09-06T20:39:05.267Z,3.83
2022-09-06T20:41:33.916Z,3.47
2022-09-06T20:44:04.015Z,3.17
2022-09-06T20:46:33.938Z,3.23
2022-09-06T20:49:04.875Z,3.20
2022-09-06T20:51:34.326Z,3.00
2022-09-06T20:54:03.704Z,3.17
2022-09-06T20:56:34.308Z,3.23
2022-09-06T20:59:05.512Z,3.23
2022-09-06T21:01:35.829Z,3.07
2022-09-06T21:04:07.167Z,3.27
2022-09-06T21:06:37.076Z,3.53
2022-09-06T21:09:06.725Z,3.33
2022-09-06T21:11:34.928Z,3.23
2022-09-06T21:14:05.351Z,3.87
2022-09-06T21:16:33.920Z,4.20
2022-09-06T21:19:03.720Z,3.90
2022-09-06T21:21:34.501Z,5.10
2022-09-06T21:24:03.776Z,4.80
2022-09-06T21:26:32.196Z,5.37
2022-09-06T21:29:00.696Z,4.43
2022-09-06T21:31:32.028Z,4.37
2022-09-06T21:34:03.549Z,4.50
2022-09-06T21:36:33.992Z,3.77
2022-09-06T21:39:04.086Z,3.50
2022-09-06T21:41:34.470Z,3.60
2022-09-06T21:44:03.993Z,3.57
2022-09-06T21:46:34.995Z,2.73
2022-09-06T21:49:08.614Z,3.17
2022-09-06T21:51:37.492Z,3.20
2022-09-06T21:54:06.804Z,3.27
2022-09-06T21:56:37.007Z,3.00
2022-09-06T21:59:06.333Z,3.67
2022-09-06T22:01:37.837Z,3.27
2022-09-06T22:04:06.145Z,3.40
2022-09-06T22:06:35.926Z,2.97
2022-09-06T22:09:07.716Z,3.60
2022-09-06T22:11:36.102Z,3.33
2022-09-06T22:14:09.151Z,3.70
2022-09-06T22:16:40.242Z,3.27
2022-09-06T22:19:09.976Z,3.83
2022-09-06T22:21:39.392Z,4.33
2022-09-06T22:24:09.309Z,3.93
2022-09-06T22:26:39.928Z,3.47
2022-09-06T22:29:10.277Z,3.87
2022-09-06T22:31:40.432Z,3.43
2022-09-06T22:34:10.378Z,3.40
2022-09-06T22:36:38.675Z,3.33
2022-09-06T22:39:06.818Z,3.67
2022-09-06T22:41:35.198Z,2.90
2022-09-06T22:44:05.095Z,3.10
2022-09-06T22:46:34.451Z,3.13
2022-09-06T22:49:05.397Z,3.43
2022-09-06T22:51:33.626Z,2.97
2022-09-06T22:54:01.874Z,2.70
2022-09-06T22:56:30.218Z,3.30
2022-09-06T22:58:59.896Z,2.50
2022-09-06T23:01:28.201Z,2.40
2022-09-06T23:03:56.490Z,2.23
2022-09-06T23:06:26.126Z,2.03
2022-09-06T23:08:54.287Z,2.03
2022-09-06T23:11:22.499Z,2.50
2022-09-06T23:13:50.834Z,2.13
2022-09-06T23:16:20.329Z,2.20
2022-09-06T23:18:49.226Z,2.20
2022-09-06T23:21:19.430Z,2.17
2022-09-06T23:23:50.714Z,2.60
2022-09-06T23:26:22.390Z,2.00
2022-09-06T23:28:56.353Z,2.10
2022-09-06T23:31:26.194Z,2.00
2022-09-06T23:33:55.230Z,1.57
2022-09-06T23:36:23.389Z,2.07
2022-09-06T23:38:53.527Z,1.80
2022-09-06T23:41:22.014Z,2.00
2022-09-06T23:43:50.219Z,1.80
2022-09-06T23:46:18.572Z,1.57
2022-09-06T23:48:46.766Z,1.57
2022-09-06T23:51:14.994Z,1.60
2022-09-06T23:53:43.258Z,1.93
2022-09-06T23:56:13.135Z,1.50
2022-09-06T23:58:41.480Z,2.27
